Time;durP1;ratioP1;P1;durP2;ratioP2;P2;SDS_P1;SDS_P2;PMS_P1;PMS_P2;Temp;Humidity;BMP_temperature;BMP_pressure;BME280_temperature;BME280_humidity;BME280_pressure;Samples;Min_cycle;Max_cycle;Signal;HPM_P1;HPM_P2
2023/09/07 00:01:19;;;;;;;5.10;3.28;;;14.80;99.90;;;;;;5036667;28;20033;-36
2023/09/07 00:03:45;;;;;;;3.78;3.17;;;14.80;99.90;;;;;;5041432;28;20017;-33
2023/09/07 00:06:10;;;;;;;5.10;3.33;;;14.70;99.90;;;;;;5040067;28;20037;-35
2023/09/07 00:08:36;;;;;;;4.28;3.33;;;14.70;99.90;;;;;;5042145;28;20672;-34
2023/09/07 00:11:11;;;;;;;4.68;3.58;;;14.70;99.90;;;;;;5042726;28;20107;-33
2023/09/07 00:13:37;;;;;;;4.60;3.42;;;14.70;99.90;;;;;;5041576;28;20026;-35
2023/09/07 00:16:04;;;;;;;5.25;3.40;;;14.60;99.90;;;;;;5041716;28;20090;-35
2023/09/07 00:18:30;;;;;;;6.43;3.80;;;14.60;99.90;;;;;;5044996;28;20146;-34
2023/09/07 00:20:56;;;;;;;4.22;3.38;;;14.50;99.90;;;;;;5039483;28;20100;-36
2023/09/07 00:23:22;;;;;;;4.95;3.72;;;14.50;99.90;;;;;;5041931;28;20112;-40
2023/09/07 00:25:48;;;;;;;3.90;3.50;;;14.50;99.90;;;;;;5038524;28;20650;-39
2023/09/07 00:28:14;;;;;;;6.82;3.53;;;14.50;99.90;;;;;;5044160;28;20061;-40
2023/09/07 00:30:40;;;;;;;5.13;3.33;;;14.50;99.90;;;;;;5043884;28;20065;-40
2023/09/07 00:33:07;;;;;;;4.40;3.13;;;14.50;99.90;;;;;;5043060;28;20063;-39
2023/09/07 00:35:32;;;;;;;4.22;3.83;;;14.50;99.90;;;;;;5043258;28;20032;-40
2023/09/07 00:37:58;;;;;;;4.47;3.35;;;14.40;99.90;;;;;;5045981;28;20475;-38
2023/09/07 00:40:25;;;;;;;4.43;3.80;;;14.40;99.90;;;;;;5045329;28;20060;-33
2023/09/07 00:42:50;;;;;;;5.07;3.63;;;14.30;99.90;;;;;;5045290;28;20041;-33
2023/09/07 00:45:16;;;;;;;3.83;3.33;;;14.30;99.90;;;;;;5042379;28;21696;-33
2023/09/07 00:47:42;;;;;;;3.75;3.35;;;14.30;99.90;;;;;;5037905;28;20107;-31
2023/09/07 00:50:08;;;;;;;4.68;3.33;;;14.30;99.90;;;;;;5040548;28;20391;-36
2023/09/07 00:52:39;;;;;;;3.33;2.95;;;14.30;99.90;;;;;;5039552;28;20509;-34
2023/09/07 00:55:06;;;;;;;3.00;2.78;;;14.20;99.90;;;;;;5037421;28;20180;-37
2023/09/07 00:57:32;;;;;;;3.15;2.85;;;14.20;99.90;;;;;;5038052;28;20074;-34
2023/09/07 00:59:58;;;;;;;4.15;3.47;;;14.20;99.90;;;;;;5038820;28;20028;-34
2023/09/07 01:02:24;;;;;;;5.03;3.67;;;14.20;99.90;;;;;;5039568;28;20515;-33
2023/09/07 01:04:51;;;;;;;4.50;3.33;;;14.20;99.90;;;;;;5036817;28;20078;-31
2023/09/07 01:07:25;;;;;;;4.90;3.25;;;14.10;99.90;;;;;;5035554;28;20028;-35
2023/09/07 01:09:55;;;;;;;5.72;3.85;;;13.70;99.90;;;;;;5034779;28;20037;-35
2023/09/07 01:12:21;;;;;;;4.70;3.40;;;13.40;99.90;;;;;;5037267;28;20049;-34
2023/09/07 01:14:47;;;;;;;5.35;3.60;;;13.20;99.90;;;;;;5035263;28;20129;-32
2023/09/07 01:17:13;;;;;;;5.43;2.92;;;13.30;99.90;;;;;;5035508;28;20067;-31
2023/09/07 01:19:39;;;;;;;3.20;2.63;;;13.40;99.90;;;;;;5037439;28;20044;-34
2023/09/07 01:22:08;;;;;;;3.15;2.85;;;13.50;99.90;;;;;;5035224;28;20424;-33
2023/09/07 01:24:35;;;;;;;3.78;2.83;;;13.60;99.90;;;;;;5034805;28;20021;-31
2023/09/07 01:27:03;;;;;;;3.28;2.97;;;13.60;99.90;;;;;;5036849;28;20064;-36
2023/09/07 01:29:29;;;;;;;3.70;3.30;;;13.60;99.90;;;;;;5036720;28;20784;-34
2023/09/07 01:31:55;;;;;;;4.28;3.38;;;13.60;99.90;;;;;;5035821;28;20044;-34
2023/09/07 01:34:21;;;;;;;5.38;3.45;;;13.50;99.90;;;;;;5031904;28;20494;-35
2023/09/07 01:36:46;;;;;;;3.35;2.92;;;13.30;99.90;;;;;;5036727;28;20021;-34
2023/09/07 01:39:12;;;;;;;2.95;2.50;;;13.10;99.90;;;;;;5035479;28;21001;-35
2023/09/07 01:41:37;;;;;;;3.80;2.80;;;13.20;99.90;;;;;;5031219;28;20028;-33
2023/09/07 01:44:03;;;;;;;3.20;2.67;;;13.20;99.90;;;;;;5034952;28;20033;-33
2023/09/07 01:46:29;;;;;;;3.80;2.90;;;13.20;99.90;;;;;;5035314;28;20090;-35
2023/09/07 01:48:54;;;;;;;2.92;2.50;;;13.30;99.90;;;;;;5034310;28;20029;-33
2023/09/07 01:51:20;;;;;;;3.65;2.08;;;13.30;99.90;;;;;;5035840;28;20059;-36
2023/09/07 01:53:49;;;;;;;2.50;2.30;;;13.30;99.90;;;;;;5034294;28;20024;-39
2023/09/07 01:56:16;;;;;;;4.22;2.58;;;13.30;99.90;;;;;;5033399;28;20116;-39
2023/09/07 01:58:42;;;;;;;2.97;2.65;;;13.30;99.90;;;;;;5034989;28;20033;-39
2023/09/07 02:01:26;;;;;;;3.10;2.80;;;13.20;99.90;;;;;;5035496;28;20044;-35
2023/09/07 02:03:52;;;;;;;4.07;2.92;;;13.20;99.90;;;;;;5034116;28;20044;-36
2023/09/07 02:06:18;;;;;;;3.83;2.90;;;13.20;99.90;;;;;;5035948;28;20072;-40
2023/09/07 02:08:44;;;;;;;3.72;2.92;;;13.20;99.90;;;;;;5034217;28;20112;-36
2023/09/07 02:11:09;;;;;;;4.63;3.17;;;13.20;99.90;;;;;;5032047;28;20032;-39
2023/09/07 02:13:35;;;;;;;3.33;3.03;;;13.10;99.90;;;;;;5037627;28;20044;-39
2023/09/07 02:16:05;;;;;;;3.60;3.30;;;13.20;99.90;;;;;;5033473;28;20369;-38
2023/09/07 02:18:32;;;;;;;2.85;2.50;;;13.20;99.90;;;;;;5036910;28;20055;-34
2023/09/07 02:21:04;;;;;;;3.60;2.58;;;13.10;99.90;;;;;;5034990;28;20614;-37
2023/09/07 02:23:34;;;;;;;4.20;2.60;;;13.10;99.90;;;;;;5034963;28;20067;-37
2023/09/07 02:25:59;;;;;;;2.15;1.95;;;13.10;99.90;;;;;;5033408;28;20060;-38
2023/09/07 02:28:25;;;;;;;2.85;1.85;;;13.10;99.90;;;;;;5033725;28;20155;-39
2023/09/07 02:30:54;;;;;;;1.77;1.67;;;13.00;99.90;;;;;;5040009;28;20082;-36
2023/09/07 02:33:20;;;;;;;1.80;1.70;;;12.90;99.90;;;;;;5034556;28;20391;-36
2023/09/07 02:35:48;;;;;;;1.88;1.73;;;13.00;99.90;;;;;;5036787;28;20021;-36
2023/09/07 02:38:13;;;;;;;3.95;3.38;;;12.90;99.90;;;;;;5035343;28;20052;-40
2023/09/07 02:40:43;;;;;;;3.47;3.15;;;12.90;99.90;;;;;;5034822;28;20586;-38
2023/09/07 02:43:12;;;;;;;5.95;3.45;;;12.70;99.90;;;;;;5034246;28;20036;-37
2023/09/07 02:45:38;;;;;;;6.13;3.90;;;12.70;99.90;;;;;;5037259;28;20532;-34
2023/09/07 02:48:05;;;;;;;5.28;3.50;;;12.60;99.90;;;;;;5032694;28;20717;-36
2023/09/07 02:50:33;;;;;;;5.78;3.20;;;12.60;99.90;;;;;;5032336;28;20029;-35
2023/09/07 02:52:59;;;;;;;;;;;12.60;99.90;;;;;;5034758;28;20437;-33
2023/09/07 02:55:26;;;;;;;3.42;3.13;;;12.60;99.90;;;;;;5030396;28;19913;-35
2023/09/07 02:57:51;;;;;;;5.00;3.35;;;12.70;99.90;;;;;;5030757;28;20044;-33
2023/09/07 03:00:17;;;;;;;5.80;3.63;;;12.60;99.90;;;;;;5032681;28;20032;-32
2023/09/07 03:02:43;;;;;;;4.40;3.70;;;12.60;99.90;;;;;;5035890;28;20115;-35
2023/09/07 03:05:09;;;;;;;3.30;2.67;;;12.60;99.90;;;;;;5034489;28;20743;-35
2023/09/07 03:07:35;;;;;;;3.50;2.60;;;12.70;99.90;;;;;;5036794;28;20028;-33
2023/09/07 03:10:01;;;;;;;3.50;2.58;;;12.70;99.90;;;;;;5035045;28;20074;-33
2023/09/07 03:12:27;;;;;;;6.72;3.15;;;12.60;99.90;;;;;;5036949;28;20025;-32
2023/09/07 03:14:53;;;;;;;4.53;3.65;;;12.70;99.90;;;;;;5035054;28;20612;-34
2023/09/07 03:17:20;;;;;;;6.28;3.50;;;12.60;99.90;;;;;;5034742;28;20037;-31
2023/09/07 03:19:46;;;;;;;6.78;4.10;;;12.60;99.90;;;;;;5036163;28;20040;-35
2023/09/07 03:22:12;;;;;;;5.82;3.60;;;12.60;99.90;;;;;;5037959;28;20029;-33
2023/09/07 03:24:38;;;;;;;4.13;3.72;;;12.60;99.90;;;;;;5038186;28;20032;-35
2023/09/07 03:27:05;;;;;;;4.00;3.55;;;12.40;99.90;;;;;;5035361;28;20763;-33
2023/09/07 03:29:33;;;;;;;5.35;2.97;;;12.30;99.90;;;;;;5034921;28;20421;-34
2023/09/07 03:32:02;;;;;;;7.65;3.10;;;12.30;99.90;;;;;;5034940;28;20075;-34
2023/09/07 03:34:28;;;;;;;6.00;3.70;;;12.40;99.90;;;;;;5034424;28;20660;-36
2023/09/07 03:36:53;;;;;;;5.35;3.72;;;12.40;99.90;;;;;;5032979;28;20086;-33
2023/09/07 03:39:21;;;;;;;6.25;3.60;;;12.30;99.90;;;;;;5038513;28;20175;-34
2023/09/07 03:41:47;;;;;;;3.92;2.75;;;12.30;99.90;;;;;;5035502;28;20029;-34
2023/09/07 03:44:12;;;;;;;4.20;3.00;;;12.30;99.90;;;;;;5035587;28;20407;-34
2023/09/07 03:46:38;;;;;;;4.85;2.67;;;12.30;99.90;;;;;;5034975;28;20076;-34
2023/09/07 03:49:03;;;;;;;3.05;2.50;;;12.30;99.90;;;;;;5031674;28;20614;-35
2023/09/07 03:51:29;;;;;;;3.20;2.28;;;12.20;99.90;;;;;;5033482;28;20056;-38
2023/09/07 03:53:54;;;;;;;1.73;1.63;;;12.10;99.90;;;;;;5031240;28;20111;-39
2023/09/07 03:56:20;;;;;;;2.47;1.90;;;11.90;99.90;;;;;;5032536;28;20063;-38
2023/09/07 03:58:48;;;;;;;2.88;2.25;;;11.90;99.90;;;;;;5031130;28;20033;-39
2023/09/07 04:01:14;;;;;;;4.53;2.40;;;11.90;99.90;;;;;;5031929;28;20128;-37
2023/09/07 04:03:40;;;;;;;5.18;2.83;;;12.00;99.90;;;;;;5038404;28;20036;-40
2023/09/07 04:06:06;;;;;;;4.30;2.47;;;12.00;99.90;;;;;;5037537;28;20502;-39
2023/09/07 04:08:32;;;;;;;3.47;2.75;;;12.00;99.90;;;;;;5038485;28;20040;-39
2023/09/07 04:10:57;;;;;;;7.80;3.38;;;12.10;99.90;;;;;;5036299;28;20032;-39
2023/09/07 04:13:23;;;;;;;5.35;3.03;;;12.10;99.90;;;;;;5036854;28;20064;-34
2023/09/07 04:15:49;;;;;;;2.83;2.63;;;12.10;99.90;;;;;;5041559;28;20336;-36
2023/09/07 04:18:16;;;;;;;4.85;2.55;;;12.10;99.90;;;;;;5036574;28;20662;-36
2023/09/07 04:20:42;;;;;;;7.20;3.15;;;12.10;99.90;;;;;;5037224;28;20064;-39
2023/09/07 04:23:07;;;;;;;6.15;3.53;;;12.10;99.90;;;;;;5035972;28;20124;-33
2023/09/07 04:25:33;;;;;;;9.25;2.97;;;12.10;99.90;;;;;;5038687;28;20067;-38
2023/09/07 04:27:59;;;;;;;10.48;4.03;;;12.10;99.90;;;;;;5037603;28;20450;-37
2023/09/07 04:30:24;;;;;;;9.07;2.85;;;12.10;99.90;;;;;;5035749;28;20748;-41
2023/09/07 04:32:50;;;;;;;7.50;3.03;;;12.10;99.90;;;;;;5038108;28;20029;-39
2023/09/07 04:35:16;;;;;;;4.93;2.10;;;12.10;99.90;;;;;;5037772;28;20119;-40
2023/09/07 04:37:45;;;;;;;4.70;1.95;;;12.00;99.90;;;;;;5036952;28;20033;-40
2023/09/07 04:40:11;;;;;;;2.03;1.70;;;12.00;99.90;;;;;;5036297;28;20033;-37
2023/09/07 04:42:38;;;;;;;3.70;1.70;;;12.00;99.90;;;;;;5036268;28;20491;-38
2023/09/07 04:45:05;;;;;;;2.03;1.40;;;11.90;99.90;;;;;;5036299;28;20584;-40
2023/09/07 04:47:31;;;;;;;2.10;1.90;;;11.90;99.90;;;;;;5034568;28;20407;-40
2023/09/07 04:49:56;;;;;;;2.92;2.00;;;11.80;99.90;;;;;;5036355;28;20036;-35
2023/09/07 04:52:22;;;;;;;3.58;2.10;;;11.80;99.90;;;;;;5052389;28;20064;-37
2023/09/07 04:54:47;;;;;;;2.55;2.35;;;11.80;99.90;;;;;;5036895;28;20280;-41
2023/09/07 04:57:19;;;;;;;4.63;2.30;;;11.80;99.90;;;;;;5036767;28;20058;-37
2023/09/07 04:59:45;;;;;;;4.55;2.40;;;11.80;99.90;;;;;;5035261;28;20036;-37
2023/09/07 05:02:11;;;;;;;3.33;2.67;;;11.90;99.90;;;;;;5038048;28;20060;-34
2023/09/07 05:04:37;;;;;;;4.00;2.88;;;11.90;99.90;;;;;;5039324;28;20090;-33
2023/09/07 05:07:03;;;;;;;4.63;2.70;;;11.80;99.90;;;;;;5039029;28;20468;-32
2023/09/07 05:09:29;;;;;;;4.72;2.70;;;11.80;99.90;;;;;;5038174;28;20116;-36
2023/09/07 05:11:55;;;;;;;5.45;2.85;;;11.80;99.90;;;;;;5036955;28;20083;-38
2023/09/07 05:14:21;;;;;;;4.15;3.33;;;11.80;99.90;;;;;;5036824;28;20022;-34
2023/09/07 05:16:47;;;;;;;5.20;3.03;;;11.80;99.90;;;;;;5038669;28;20032;-32
2023/09/07 05:19:13;;;;;;;16.13;3.90;;;11.80;99.90;;;;;;5037486;28;20516;-34
2023/09/07 05:21:39;;;;;;;13.20;3.63;;;11.70;99.90;;;;;;5040151;28;20626;-35
2023/09/07 05:24:05;;;;;;;11.85;3.78;;;11.70;99.90;;;;;;5035417;28;20033;-34
2023/09/07 05:26:30;;;;;;;4.55;2.95;;;11.60;99.90;;;;;;5039381;28;20480;-34
2023/09/07 05:28:56;;;;;;;8.82;3.53;;;11.50;99.90;;;;;;5037260;28;20049;-36
2023/09/07 05:31:22;;;;;;;8.75;4.03;;;11.60;99.90;;;;;;5035531;28;20104;-34
2023/09/07 05:33:47;;;;;;;9.27;3.40;;;11.60;99.90;;;;;;5037417;28;20028;-33
2023/09/07 05:36:13;;;;;;;9.07;3.35;;;11.70;99.90;;;;;;5036612;28;20025;-35
2023/09/07 05:38:38;;;;;;;7.63;4.20;;;11.80;99.90;;;;;;5037697;28;20029;-35
2023/09/07 05:41:04;;;;;;;7.47;3.10;;;11.80;99.90;;;;;;5038895;28;20025;-34
2023/09/07 05:43:30;;;;;;;4.25;2.97;;;11.90;99.90;;;;;;5038110;28;20021;-35
2023/09/07 05:45:55;;;;;;;4.15;2.92;;;11.90;99.90;;;;;;5038272;28;20036;-32
2023/09/07 05:48:21;;;;;;;5.53;3.45;;;11.90;99.90;;;;;;5037482;28;20152;-34
2023/09/07 05:50:46;;;;;;;5.22;2.78;;;11.90;99.90;;;;;;5040796;28;20060;-33
2023/09/07 05:53:27;;;;;;;6.22;2.47;;;12.00;99.90;;;;;;5040017;28;21797;-30
2023/09/07 05:55:52;;;;;;;5.18;2.80;;;12.10;99.90;;;;;;5044367;28;20059;-32
2023/09/07 05:58:19;;;;;;;5.00;2.83;;;12.20;99.90;;;;;;5043086;28;20029;-32
2023/09/07 06:00:44;;;;;;;4.40;3.05;;;12.20;99.90;;;;;;5044694;28;20078;-35
2023/09/07 06:03:10;;;;;;;4.80;3.17;;;12.30;99.90;;;;;;5041398;28;20687;-34
2023/09/07 06:05:36;;;;;;;4.38;3.22;;;12.40;99.90;;;;;;5042104;28;20060;-32
2023/09/07 06:08:02;;;;;;;5.07;4.22;;;12.50;99.90;;;;;;5044378;28;20483;-34
2023/09/07 06:10:29;;;;;;;4.10;3.70;;;12.50;99.90;;;;;;5044592;28;20511;-32
2023/09/07 06:12:55;;;;;;;5.65;4.55;;;12.70;99.90;;;;;;5042979;28;20029;-34
2023/09/07 06:15:21;;;;;;;6.15;4.78;;;12.80;99.90;;;;;;5043897;28;20435;-32
2023/09/07 06:17:47;;;;;;;5.60;4.72;;;13.00;99.90;;;;;;5039687;28;20023;-34
2023/09/07 06:20:12;;;;;;;7.80;5.63;;;13.10;99.90;;;;;;5046365;28;20055;-33
2023/09/07 06:22:38;;;;;;;10.75;6.18;;;13.30;99.90;;;;;;5038822;28;20596;-33
2023/09/07 06:25:04;;;;;;;10.07;7.57;;;13.50;99.90;;;;;;5041192;28;20025;-34
2023/09/07 06:27:30;;;;;;;8.70;7.10;;;13.70;99.90;;;;;;5039216;28;20036;-33
2023/09/07 06:29:55;;;;;;;13.27;8.23;;;13.90;99.90;;;;;;5035968;28;20045;-36
2023/09/07 06:32:21;;;;;;;11.95;8.50;;;14.10;99.90;;;;;;5033992;28;20037;-37
2023/09/07 06:34:47;;;;;;;10.60;8.27;;;14.30;99.90;;;;;;5041999;28;20042;-41
2023/09/07 06:37:13;;;;;;;12.68;8.63;;;14.40;99.90;;;;;;5033217;28;20047;-41
2023/09/07 06:39:38;;;;;;;12.68;8.23;;;14.60;99.90;;;;;;5035137;28;20752;-35
2023/09/07 06:42:04;;;;;;;12.15;9.07;;;14.70;99.90;;;;;;5036488;28;20086;-34
2023/09/07 06:44:29;;;;;;;13.63;9.57;;;14.90;99.90;;;;;;5036509;28;20095;-33
2023/09/07 06:46:55;;;;;;;14.68;9.00;;;15.00;99.90;;;;;;5037574;28;20040;-35
2023/09/07 06:49:22;;;;;;;10.45;8.48;;;15.10;99.90;;;;;;5036849;28;20496;-36
2023/09/07 06:51:47;;;;;;;10.73;8.32;;;15.20;99.90;;;;;;5036729;28;20033;-35
2023/09/07 06:54:13;;;;;;;13.32;8.73;;;15.40;99.90;;;;;;5033355;28;20083;-36
2023/09/07 06:56:39;;;;;;;12.07;8.48;;;15.50;99.90;;;;;;5038190;28;20040;-34
2023/09/07 06:59:05;;;;;;;15.18;9.50;;;15.60;99.90;;;;;;5036386;28;20036;-31
2023/09/07 07:01:30;;;;;;;12.02;9.85;;;15.70;99.90;;;;;;5035860;28;20593;-33
2023/09/07 07:03:56;;;;;;;10.55;8.45;;;15.90;99.90;;;;;;5034715;28;20976;-38
2023/09/07 07:06:23;;;;;;;13.30;9.13;;;16.00;99.90;;;;;;5036674;28;20553;-37
2023/09/07 07:08:48;;;;;;;13.40;8.63;;;16.20;99.90;;;;;;5034126;28;20032;-34
2023/09/07 07:11:14;;;;;;;12.15;8.80;;;16.20;99.90;;;;;;5035121;28;20056;-33
2023/09/07 07:13:39;;;;;;;11.55;8.23;;;16.40;99.90;;;;;;5038180;28;20029;-33
2023/09/07 07:16:06;;;;;;;14.95;8.85;;;16.50;99.90;;;;;;5042200;28;20472;-33
2023/09/07 07:18:31;;;;;;;11.00;7.65;;;16.60;99.90;;;;;;5037098;28;20039;-35
2023/09/07 07:20:57;;;;;;;11.82;7.75;;;16.70;99.90;;;;;;5034298;28;20029;-38
2023/09/07 07:23:22;;;;;;;10.48;7.30;;;17.00;99.90;;;;;;5034901;28;20044;-37
2023/09/07 07:25:48;;;;;;;10.00;7.63;;;17.10;99.90;;;;;;5031832;28;20590;-31
2023/09/07 07:28:13;;;;;;;8.50;7.22;;;17.20;99.90;;;;;;5035155;28;20025;-37
2023/09/07 07:30:42;;;;;;;10.07;7.63;;;17.30;99.90;;;;;;5032380;28;20068;-35
2023/09/07 07:33:08;;;;;;;9.60;7.63;;;17.30;99.90;;;;;;5034316;28;20113;-32
2023/09/07 07:35:34;;;;;;;8.30;7.00;;;17.40;99.90;;;;;;5044651;28;20017;-35
2023/09/07 07:38:00;;;;;;;10.93;7.40;;;17.50;99.90;;;;;;5043127;28;20547;-31
2023/09/07 07:40:26;;;;;;;8.50;7.18;;;17.60;99.90;;;;;;5040174;28;20025;-35
2023/09/07 07:42:53;;;;;;;10.68;7.93;;;17.70;99.90;;;;;;5039643;28;20039;-39
2023/09/07 07:45:19;;;;;;;10.10;7.47;;;17.80;99.90;;;;;;5038103;28;20122;-41
2023/09/07 07:47:45;;;;;;;13.35;7.97;;;17.90;99.90;;;;;;5048865;28;20490;-41
2023/09/07 07:50:11;;;;;;;10.60;7.40;;;18.00;99.90;;;;;;5042114;28;20118;-39
2023/09/07 07:52:37;;;;;;;11.27;7.82;;;18.00;99.90;;;;;;5036056;28;20113;-40
2023/09/07 07:55:02;;;;;;;9.20;7.10;;;18.10;99.90;;;;;;5036342;28;20735;-37
2023/09/07 07:57:28;;;;;;;8.63;7.30;;;18.20;99.90;;;;;;5035937;28;20115;-38
2023/09/07 07:59:55;;;;;;;9.05;7.20;;;18.40;99.90;;;;;;5035730;28;20033;-40
2023/09/07 08:02:20;;;;;;;9.70;7.93;;;18.40;99.90;;;;;;5037841;28;20835;-37
2023/09/07 08:04:46;;;;;;;9.38;6.97;;;18.40;99.90;;;;;;5038272;28;20128;-38
2023/09/07 08:07:12;;;;;;;8.80;7.75;;;18.50;99.90;;;;;;5035785;28;20246;-40
2023/09/07 08:09:37;;;;;;;9.73;7.93;;;18.60;99.90;;;;;;5033944;28;20476;-38
2023/09/07 08:12:05;;;;;;;10.10;7.57;;;18.70;99.90;;;;;;5023272;28;20033;-41
2023/09/07 08:14:31;;;;;;;8.97;7.20;;;18.80;99.90;;;;;;5036495;28;20025;-40
2023/09/07 08:16:57;;;;;;;7.88;6.93;;;19.00;99.90;;;;;;5034697;28;21867;-37
2023/09/07 08:19:22;;;;;;;10.20;7.80;;;19.20;99.90;;;;;;5037276;28;20087;-40
2023/09/07 08:21:48;;;;;;;8.75;6.88;;;19.20;99.90;;;;;;5040454;28;20021;-39
2023/09/07 08:24:14;;;;;;;11.10;8.07;;;19.20;99.90;;;;;;5035541;28;20033;-40
2023/09/07 08:26:39;;;;;;;9.57;7.38;;;19.30;99.90;;;;;;5037731;28;20041;-36
2023/09/07 08:29:06;;;;;;;9.15;7.30;;;19.40;99.90;;;;;;5037651;28;20037;-38
2023/09/07 08:31:33;;;;;;;11.77;7.47;;;19.40;99.90;;;;;;5033867;28;20469;-37
2023/09/07 08:34:03;;;;;;;8.75;7.80;;;19.40;99.90;;;;;;5036714;28;20036;-40
2023/09/07 08:36:32;;;;;;;9.65;7.47;;;19.50;99.90;;;;;;5035748;28;20067;-37
2023/09/07 08:39:01;;;;;;;8.35;7.35;;;19.60;99.90;;;;;;5037736;28;20029;-37
2023/09/07 08:41:28;;;;;;;9.73;6.97;;;19.60;99.90;;;;;;5035386;28;20033;-38
2023/09/07 08:43:55;;;;;;;10.23;7.82;;;19.70;99.90;;;;;;5035270;28;20029;-40
2023/09/07 08:46:23;;;;;;;9.75;8.07;;;19.80;99.90;;;;;;5035413;28;20082;-38
2023/09/07 08:48:52;;;;;;;9.75;7.60;;;19.90;99.90;;;;;;5036856;28;20032;-36
2023/09/07 08:51:19;;;;;;;9.13;6.97;;;20.00;99.90;;;;;;5035767;28;20024;-37
2023/09/07 08:53:46;;;;;;;9.55;7.28;;;20.10;99.90;;;;;;5036978;28;20744;-38
2023/09/07 08:56:16;;;;;;;10.18;7.38;;;20.20;99.90;;;;;;5038079;28;20068;-35
2023/09/07 08:58:41;;;;;;;8.68;7.25;;;20.20;99.90;;;;;;5034750;28;20488;-39
2023/09/07 09:01:12;;;;;;;10.35;7.32;;;20.20;99.90;;;;;;5036144;28;20036;-37
2023/09/07 09:03:38;;;;;;;11.38;7.40;;;20.40;99.90;;;;;;5036767;28;20027;-34
2023/09/07 09:06:07;;;;;;;8.02;6.97;;;20.40;99.90;;;;;;5041951;28;20021;-36
2023/09/07 09:08:48;;;;;;;7.63;6.65;;;20.40;99.90;;;;;;5039330;28;20032;-36
2023/09/07 09:11:15;;;;;;;8.13;7.00;;;20.50;99.90;;;;;;5039296;28;20414;-33
2023/09/07 09:13:41;;;;;;;8.60;6.90;;;20.50;99.90;;;;;;5041894;28;20032;-33
2023/09/07 09:16:07;;;;;;;8.40;6.97;;;20.60;99.90;;;;;;5044129;28;20031;-37
2023/09/07 09:18:33;;;;;;;7.95;6.40;;;20.90;99.90;;;;;;5034516;28;20036;-34
2023/09/07 09:21:01;;;;;;;7.63;6.82;;;21.00;99.90;;;;;;5027556;28;20416;-33
2023/09/07 09:23:34;;;;;;;8.90;7.38;;;21.00;99.90;;;;;;5041532;28;20732;-33
2023/09/07 09:26:03;;;;;;;8.63;6.75;;;21.20;99.90;;;;;;5036400;28;20111;-32
2023/09/07 09:28:31;;;;;;;8.75;6.88;;;21.40;99.90;;;;;;5040115;28;20045;-32
2023/09/07 09:30:58;;;;;;;9.82;7.18;;;21.30;99.90;;;;;;5046537;28;20498;-36
2023/09/07 09:33:24;;;;;;;9.20;6.97;;;21.50;99.90;;;;;;5035885;28;20090;-34
2023/09/07 09:35:52;;;;;;;8.52;6.22;;;21.60;99.90;;;;;;5039150;28;20513;-34
2023/09/07 09:38:18;;;;;;;7.93;7.10;;;21.70;99.90;;;;;;5043088;28;20036;-31
2023/09/07 09:40:44;;;;;;;8.00;6.20;;;21.70;99.90;;;;;;5035055;28;20126;-35
2023/09/07 09:43:12;;;;;;;8.38;6.68;;;21.80;99.90;;;;;;5036326;28;20029;-33
2023/09/07 09:45:38;;;;;;;11.13;7.03;;;21.80;99.90;;;;;;5034914;28;20103;-33
2023/09/07 09:48:05;;;;;;;8.27;6.82;;;21.80;99.90;;;;;;5033480;28;20431;-35
2023/09/07 09:50:32;;;;;;;6.80;5.78;;;21.90;99.90;;;;;;5033894;28;20033;-34
2023/09/07 09:52:59;;;;;;;8.90;7.00;;;21.90;99.90;;;;;;5033649;28;20040;-37
2023/09/07 09:55:25;;;;;;;9.43;6.97;;;22.00;99.90;;;;;;5037017;28;20029;-36
2023/09/07 09:57:51;;;;;;;11.13;7.03;;;22.10;99.90;;;;;;5033104;28;20037;-34
2023/09/07 10:03:13;;;;;;;6.78;5.60;;;22.20;99.90;;;;;;5033834;28;20061;-33
2023/09/07 10:05:38;;;;;;;6.65;5.97;;;22.20;99.90;;;;;;5044267;28;20082;-32
2023/09/07 10:08:11;;;;;;;8.82;6.28;;;22.30;99.90;;;;;;5044309;28;20036;-35
2023/09/07 10:10:38;;;;;;;9.38;6.75;;;22.60;99.90;;;;;;5037472;28;20033;-38
2023/09/07 10:13:05;;;;;;;7.70;6.40;;;22.50;99.90;;;;;;5035354;28;20029;-38
2023/09/07 10:15:31;;;;;;;7.28;6.32;;;22.60;99.90;;;;;;5034000;28;20283;-34
2023/09/07 10:18:16;;;;;;;9.38;5.68;;;22.60;99.90;;;;;;5035126;28;20029;-35
2023/09/07 10:20:51;;;;;;;8.13;5.95;;;22.70;99.90;;;;;;5033944;28;20364;-39
2023/09/07 10:23:17;;;;;;;8.52;6.57;;;22.90;99.90;;;;;;5025051;28;20726;-39
2023/09/07 10:25:47;;;;;;;8.65;5.85;;;23.10;99.90;;;;;;5038936;28;20029;-36
2023/09/07 10:28:24;;;;;;;7.82;5.97;;;23.20;99.90;;;;;;5031036;28;20094;-35
2023/09/07 10:31:04;;;;;;;7.37;6.27;;;23.20;99.90;;;;;;5038390;28;20045;-41
2023/09/07 10:33:31;;;;;;;8.82;6.13;;;23.40;99.90;;;;;;5040686;28;20064;-36
2023/09/07 10:35:57;;;;;;;5.47;4.82;;;23.30;99.90;;;;;;5034149;28;20051;-32
2023/09/07 10:38:23;;;;;;;6.30;5.30;;;23.40;99.90;;;;;;5040499;28;20068;-38
2023/09/07 10:40:59;;;;;;;6.68;5.05;;;23.60;99.90;;;;;;5040488;28;20033;-37
2023/09/07 10:43:32;;;;;;;6.30;5.63;;;23.40;99.90;;;;;;5038885;28;20025;-40
2023/09/07 10:46:00;;;;;;;6.85;5.07;;;23.60;99.90;;;;;;5045763;28;20021;-34
2023/09/07 10:48:28;;;;;;;6.00;5.40;;;23.70;99.90;;;;;;5043121;28;20365;-40
2023/09/07 10:50:53;;;;;;;6.18;5.25;;;23.90;99.90;;;;;;5042946;28;20079;-36
2023/09/07 10:53:30;;;;;;;6.22;5.15;;;23.80;99.90;;;;;;5040840;28;20669;-37
2023/09/07 10:56:04;;;;;;;6.25;5.20;;;24.00;99.90;;;;;;5035305;28;20091;-40
2023/09/07 10:58:34;;;;;;;7.10;4.88;;;24.00;99.90;;;;;;5043314;28;20029;-38
2023/09/07 11:01:00;;;;;;;5.93;5.32;;;24.00;99.90;;;;;;5042042;28;20040;-38
2023/09/07 11:03:27;;;;;;;5.45;4.95;;;24.10;99.90;;;;;;5039748;28;20081;-38
2023/09/07 11:06:03;;;;;;;5.78;5.18;;;23.90;99.90;;;;;;5031078;28;20341;-39
2023/09/07 11:08:29;;;;;;;5.75;5.03;;;23.90;99.90;;;;;;5036203;28;20039;-38
2023/09/07 11:10:55;;;;;;;7.90;5.60;;;23.90;99.90;;;;;;5032149;28;20064;-40
2023/09/07 11:13:23;;;;;;;6.43;5.70;;;24.10;99.90;;;;;;5031761;28;20172;-36
2023/09/07 11:15:49;;;;;;;5.82;5.22;;;24.30;99.90;;;;;;5031862;28;20274;-38
2023/09/07 11:18:21;;;;;;;8.18;5.00;;;24.30;99.90;;;;;;5033139;28;20025;-38
2023/09/07 11:20:47;;;;;;;5.15;4.40;;;24.50;99.90;;;;;;5036428;28;20437;-34
2023/09/07 11:23:13;;;;;;;5.78;4.93;;;24.70;99.90;;;;;;5037562;28;20056;-33
2023/09/07 11:25:39;;;;;;;6.10;5.07;;;24.50;99.90;;;;;;5033658;28;20070;-37
2023/09/07 11:28:05;;;;;;;6.00;4.97;;;24.40;99.90;;;;;;5033491;28;20098;-33
2023/09/07 11:30:33;;;;;;;5.13;4.63;;;24.40;99.90;;;;;;5034234;28;20215;-33
2023/09/07 11:33:02;;;;;;;7.03;5.28;;;24.60;99.90;;;;;;5040071;28;20025;-31
2023/09/07 11:35:28;;;;;;;5.30;4.80;;;24.70;99.90;;;;;;5040791;28;20056;-32
2023/09/07 11:37:54;;;;;;;6.35;5.00;;;24.90;99.90;;;;;;5043915;28;20062;-34
2023/09/07 11:40:19;;;;;;;5.88;4.50;;;24.90;99.90;;;;;;5040871;28;20040;-33
2023/09/07 11:42:45;;;;;;;5.72;4.20;;;24.80;99.90;;;;;;5046663;28;20357;-34
2023/09/07 11:45:13;;;;;;;5.00;4.18;;;24.90;99.90;;;;;;5046501;28;20108;-35
2023/09/07 11:47:39;;;;;;;6.38;4.50;;;25.00;99.90;;;;;;5042968;28;20032;-34
2023/09/07 11:50:08;;;;;;;5.40;4.60;;;24.90;99.90;;;;;;5045365;28;20779;-32
2023/09/07 11:52:34;;;;;;;4.60;4.20;;;24.80;99.90;;;;;;5042139;28;20021;-31
2023/09/07 11:55:00;;;;;;;4.60;4.18;;;24.90;99.90;;;;;;5031207;28;20022;-33
2023/09/07 11:57:25;;;;;;;5.72;4.25;;;24.70;99.90;;;;;;5032864;28;20171;-33
2023/09/07 11:59:51;;;;;;;4.47;4.07;;;25.00;99.90;;;;;;5039987;28;20104;-32
2023/09/07 12:02:17;;;;;;;4.40;4.00;;;24.90;99.90;;;;;;5036492;28;20617;-34
2023/09/07 12:04:43;;;;;;;4.75;4.35;;;24.90;99.90;;;;;;5034307;28;20094;-32
2023/09/07 12:07:10;;;;;;;4.55;4.15;;;24.90;99.90;;;;;;5037105;28;20408;-35
2023/09/07 12:09:35;;;;;;;6.18;4.40;;;24.90;99.90;;;;;;5038656;28;20026;-33
2023/09/07 12:12:01;;;;;;;6.00;4.90;;;25.00;99.90;;;;;;5036159;28;20036;-34
2023/09/07 12:14:26;;;;;;;4.63;3.83;;;25.20;99.90;;;;;;5037825;28;20025;-32
2023/09/07 12:16:52;;;;;;;4.47;3.90;;;25.00;99.90;;;;;;5040260;28;20112;-32
2023/09/07 12:19:18;;;;;;;4.80;4.25;;;25.00;99.90;;;;;;5039507;28;20082;-34
2023/09/07 12:21:43;;;;;;;4.90;4.05;;;25.10;99.90;;;;;;5038646;28;20029;-33
2023/09/07 12:24:09;;;;;;;7.65;4.43;;;25.00;99.90;;;;;;5045334;28;20495;-37
2023/09/07 12:26:35;;;;;;;5.22;4.50;;;25.10;99.90;;;;;;5043874;28;20021;-33
2023/09/07 12:29:01;;;;;;;4.97;4.40;;;25.00;99.90;;;;;;5042351;28;20045;-35
2023/09/07 12:31:26;;;;;;;4.75;3.95;;;25.10;99.90;;;;;;5042395;28;20090;-32
2023/09/07 12:33:52;;;;;;;4.20;3.90;;;25.30;99.90;;;;;;5046219;28;20041;-32
2023/09/07 12:36:17;;;;;;;4.38;3.97;;;25.30;99.90;;;;;;5046166;28;20891;-32
2023/09/07 12:38:43;;;;;;;4.60;4.20;;;25.30;99.90;;;;;;5043603;28;20025;-32
2023/09/07 12:41:09;;;;;;;6.18;4.95;;;25.40;99.90;;;;;;5043328;28;20040;-37
2023/09/07 12:43:34;;;;;;;4.50;4.10;;;25.30;99.90;;;;;;5043299;28;20115;-32
2023/09/07 12:46:00;;;;;;;4.47;4.05;;;25.40;99.90;;;;;;5048298;28;20033;-31